Latest Weather Observations for Clare

IDS60801

Issued at 12:35 pm CDT Monday 24 November 2014 (issued every 30 minutes, with the page automatically refreshed every 10 minutes)

About weather observations | Map of weather stations | Latest weather observations for SA | Other Formats
Station Details ID: 021131 Name: CLARE HIGH SCHOOL Lat: -33.82 Lon: 138.59 Height: 395.0 m
Data from the previous 72 hours. | See also: Recent months at Clare
Date/Time
CDT
Temp
°C
App
Temp
°C
Dew
Point
Rel
Hum
%
Delta-T
°C
Wind Press
QNH
hPa
Press
MSL
hPa
Rain
since 9 am
mm
Dir
 
Spd
km/h
Gust
km/h
Spd
kts
Gust
kts
24/12:30pm 21.9 18.0 9.4 45 6.8 SW 20 35 11 19 1014.3 - 0.0
24/12:00pm 20.3 15.7 8.3 46 6.4 SW 22 37 12 20 1014.3 1013.4 0.0
24/11:30am 20.7 16.2 8.4 45 6.6 SW 22 39 12 21 1014.2 - 0.0
24/11:00am 20.0 16.0 9.0 49 5.9 SW 20 35 11 19 1014.1 - 0.0
24/10:30am 19.4 15.4 9.0 51 5.6 SW 20 37 11 20 1013.8 - 0.0
24/10:00am 18.6 14.6 10.4 59 4.5 SW 22 35 12 19 1014.0 - 0.0
24/09:30am 18.6 15.5 10.2 58 4.6 SSW 17 32 9 17 1013.9 - 0.0
24/09:00am 17.2 15.1 11.2 68 3.3 SW 13 24 7 13 1013.6 1012.6 0.0
24/08:30am 16.8 15.2 12.7 77 2.3 SW 13 24 7 13 1013.2 - 0.0
24/08:00am 16.1 14.5 12.8 81 1.9 SW 13 24 7 13 1012.4 - 0.0
24/07:30am 15.3 14.2 13.0 86 1.3 SSW 11 22 6 12 1011.8 - 0.0
24/07:00am 15.2 14.1 13.2 88 1.1 SW 11 24 6 13 1011.3 - 0.0
24/06:30am 15.4 14.8 13.6 89 1.0 SSW 9 20 5 11 1010.9 - 0.0
24/06:00am 15.9 14.3 13.9 88 1.2 SW 15 28 8 15 1010.1 1009.1 0.0
24/05:30am 18.2 16.2 11.5 65 3.7 WSW 13 20 7 11 1008.8 - 0.0
24/05:00am 20.7 19.4 11.1 54 5.4 W 9 13 5 7 1008.4 - 0.0
24/04:30am 22.1 20.3 10.9 49 6.3 N 11 20 6 11 1007.7 - 0.0
24/04:00am 21.7 20.2 10.5 49 6.2 NE 9 13 5 7 1007.3 - 0.0
24/03:30am 22.0 20.9 10.5 48 6.4 ENE 7 11 4 6 1007.3 - 0.0
24/03:00am 22.4 21.0 10.9 48 6.5 ENE 9 11 5 6 1007.8 1006.8 0.0
24/02:30am 22.9 22.1 11.0 47 6.7 N 6 11 3 6 1008.4 - 0.0
24/02:00am 23.3 21.5 11.0 46 7.0 NNE 11 19 6 10 1008.6 - 0.0
24/01:30am 22.8 21.5 11.2 48 6.6 NNE 9 13 5 7 1008.7 - 0.0
24/01:00am 22.3 21.6 12.0 52 5.9 NNE 7 15 4 8 1009.3 - 0.0
24/12:30am 22.5 21.5 12.2 52 5.9 N 9 15 5 8 1009.4 - 0.0
24/12:00am 22.5 21.5 12.2 52 5.9 N 9 17 5 9 1009.6 1008.7 0.0
 
Date/Time
CDT
Temp
°C
App
Temp
°C
Dew
Point
Rel
Hum
%
Delta-T
°C
Wind Press
QNH
hPa
Press
MSL
hPa
Rain
since 9 am
mm
Dir
 
Spd
km/h
Gust
km/h
Spd
kts
Gust
kts
23/11:30pm 22.8 21.3 11.8 50 6.3 N 11 17 6 9 1010.3 - 0.0
23/11:00pm 22.4 19.9 9.6 44 7.0 N 13 24 7 13 1010.7 - 0.0
23/10:30pm 22.8 21.2 10.3 45 7.0 E 9 11 5 6 1010.4 - 0.0
23/10:00pm 23.5 22.2 9.9 42 7.6 E 7 15 4 8 1010.0 - 0.0
23/09:30pm 24.6 23.1 9.3 38 8.5 E 7 19 4 10 1009.6 - 0.0
23/09:00pm 25.4 23.6 9.3 36 9.0 ENE 9 17 5 9 1009.3 1008.4 0.0
23/08:30pm 24.5 24.1 9.6 39 8.3 ESE 2 7 1 4 1009.1 - 0.0
23/08:00pm 25.2 25.2 9.9 38 8.6 CALM 0 0 0 0 1008.7 - 0.0
23/07:30pm 27.5 26.0 9.3 32 10.2 E 7 9 4 5 1008.6 - 0.0
23/07:00pm 28.4 26.9 9.2 30 10.8 E 7 13 4 7 1008.7 - 0.0
23/06:30pm 28.9 27.5 9.6 30 11.0 E 7 11 4 6 1008.8 - 0.0
23/06:00pm 29.2 27.9 7.7 26 11.9 N 4 11 2 6 1009.3 1008.4 0.0
23/05:30pm 28.7 26.9 7.3 26 11.7 N 6 13 3 7 1010.0 - 0.0
23/05:00pm 29.3 26.7 7.8 26 11.9 NW 11 15 6 8 1010.4 - 0.0
23/04:30pm 28.8 26.4 6.8 25 11.9 SW 9 17 5 9 1010.9 - 0.0
23/04:00pm 28.3 25.5 7.0 26 11.6 WNW 11 19 6 10 1011.2 - 0.0
23/03:49pm 28.1 25.5 6.2 25 11.7 SSE 9 20 5 11 1010.3 - 0.0
23/03:30pm 28.8 26.4 6.8 25 11.9 W 9 15 5 8 1012.3 - 0.0
23/03:00pm 29.5 27.3 6.2 23 12.6 SW 7 13 4 7 1012.4 1011.5 0.0
23/02:30pm 28.8 25.2 5.0 22 12.5 W 13 19 7 10 1012.7 - 0.0
23/02:00pm 29.3 26.7 6.0 23 12.5 SW 9 19 5 10 1012.8 - 0.0
23/01:30pm 28.7 25.7 6.1 24 12.1 WSW 11 17 6 9 1013.3 - 0.0
23/01:00pm 28.5 26.1 5.4 23 12.2 S 7 13 4 7 1012.8 - 0.0
23/12:30pm 28.8 27.2 6.2 24 12.1 S 4 7 2 4 1013.1 - 0.0
23/12:00pm 28.3 27.2 5.2 23 12.2 CALM 0 0 0 0 1013.2 1012.2 0.0
23/11:30am 27.9 25.9 6.1 25 11.6 SW 6 11 3 6 1013.5 - 0.0
23/11:00am 27.6 25.4 5.2 24 11.7 NE 6 9 3 5 1013.3 - 0.0
23/10:30am 27.5 25.1 5.1 24 11.7 ENE 7 11 4 6 1013.4 - 0.0
23/10:00am 25.3 22.7 6.0 29 10.1 NE 9 15 5 8 1012.9 - 0.0
23/09:30am 23.6 20.7 6.4 33 9.0 ENE 11 15 6 8 1013.0 - 0.0
23/09:00am 22.4 20.1 8.9 42 7.3 ENE 11 17 6 9 1013.3 1012.3 0.0
23/08:30am 20.8 20.0 9.7 49 6.1 NNE 4 9 2 5 1013.2 - 0.0
23/08:00am 18.7 18.1 10.5 59 4.5 NNE 4 7 2 4 1013.2 - 0.0
23/07:30am 16.5 16.0 10.6 68 3.2 E 4 7 2 4 1012.9 - 0.0
23/07:00am 13.3 13.0 11.5 89 1.0 E 4 9 2 5 1013.0 - 0.0
23/06:30am 11.4 11.0 11.2 99 0.1 E 4 7 2 4 1012.6 - 0.0
23/06:00am 11.4 11.8 11.2 99 0.1 CALM 0 0 0 0 1012.9 1011.9 0.0
23/05:30am 11.4 11.8 11.2 99 0.1 CALM 0 0 0 0 1012.8 - 0.0
23/05:00am 11.6 12.0 11.1 97 0.3 CALM 0 0 0 0 1012.7 - 0.0
23/04:30am 12.3 12.2 12.1 99 0.1 ESE 4 7 2 4 1012.6 - 0.0
23/04:00am 11.8 12.2 11.3 97 0.3 CALM 0 0 0 0 1013.2 - 0.0
23/03:30am 12.4 13.1 12.1 98 0.2 CALM 0 0 0 0 1013.0 - 0.0
23/03:00am 12.3 12.7 11.2 93 0.6 CALM 0 0 0 0 1012.7 1011.7 0.0
23/02:30am 12.8 13.0 12.0 95 0.4 SSE 2 9 1 5 1012.6 - 0.0
23/02:00am 13.6 13.6 12.5 93 0.6 SE 4 7 2 4 1012.6 - 0.0
23/01:30am 13.5 13.4 12.1 91 0.8 S 4 9 2 5 1012.7 - 0.0
23/01:00am 13.7 14.1 11.4 86 1.2 CALM 0 0 0 0 1013.2 - 0.0
23/12:30am 14.3 14.9 11.8 85 1.4 CALM 0 0 0 0 1013.3 - 0.0
23/12:00am 15.0 14.4 11.8 81 1.8 S 6 11 3 6 1013.3 1012.3 0.0
 
Date/Time
CDT
Temp
°C
App
Temp
°C
Dew
Point
Rel
Hum
%
Delta-T
°C
Wind Press
QNH
hPa
Press
MSL
hPa
Rain
since 9 am
mm
Dir
 
Spd
km/h
Gust
km/h
Spd
kts
Gust
kts
22/11:30pm 15.7 14.2 10.7 72 2.7 S 9 15 5 8 1013.3 - 0.0
22/11:00pm 16.4 14.3 9.6 64 3.6 SSE 11 19 6 10 1013.2 - 0.0
22/10:30pm 17.1 15.1 8.5 57 4.5 SSE 9 17 5 9 1013.2 - 0.0
22/10:00pm 17.6 15.1 8.2 54 4.9 S 11 24 6 13 1012.7 - 0.0
22/09:30pm 18.2 16.1 11.0 63 4.0 S 13 20 7 11 1012.1 - 0.0
22/09:00pm 19.1 17.7 13.5 70 3.3 S 13 20 7 11 1011.6 1010.7 0.0
22/08:30pm 20.7 19.6 13.2 62 4.4 S 11 17 6 9 1010.9 - 0.0
22/08:00pm 21.1 19.6 13.0 60 4.7 S 13 30 7 16 1010.5 - 0.0
22/07:30pm 21.8 19.2 13.2 58 5.0 S 19 30 10 16 1010.3 - 0.0
22/07:00pm 24.0 21.7 12.9 50 6.5 S 17 33 9 18 1009.7 - 0.0
22/06:30pm 25.6 22.9 12.8 45 7.6 S 19 32 10 17 1009.0 - 0.0
22/06:00pm 27.6 24.7 12.8 40 8.8 SSW 20 32 11 17 1008.4 1007.4 0.0
22/05:30pm 29.3 25.4 10.9 32 10.7 SSW 22 35 12 19 1008.0 - 0.0
22/05:00pm 29.9 25.9 10.5 30 11.2 SSW 22 39 12 21 1007.5 - 0.0
22/04:30pm 33.4 30.4 10.7 25 13.4 SW 17 26 9 14 1006.7 - 0.0
22/04:00pm 33.1 30.4 10.4 25 13.3 WSW 15 28 8 15 1006.9 - 0.0
22/03:30pm 33.3 31.4 10.6 25 13.4 SSW 11 24 6 13 1007.0 - 0.0
22/03:00pm 33.1 30.8 10.4 25 13.3 SW 13 19 7 10 1007.3 1006.3 0.0
22/02:30pm 32.7 30.9 10.7 26 12.9 WSW 11 26 6 14 1007.1 - 0.0
22/02:00pm 32.8 29.7 10.2 25 13.2 SW 17 32 9 17 1007.5 - 0.0
22/01:30pm 33.0 29.6 10.4 25 13.3 WNW 19 32 10 17 1007.5 - 0.0
22/01:00pm 32.3 29.4 9.8 25 13.0 W 15 32 8 17 1007.7 - 0.0
22/12:30pm 31.2 28.6 9.4 26 12.5 WNW 13 22 7 12 1007.7 - 0.0
22/12:00pm 30.6 28.5 8.3 25 12.5 NW 9 20 5 11 1008.2 1007.2 0.0
22/11:30am 30.7 27.0 7.8 24 12.8 W 17 28 9 15 1008.4 - 0.0
22/11:00am 30.5 28.4 8.3 25 12.4 W 9 15 5 8 1008.1 - 0.0
22/10:30am 30.0 27.3 7.2 24 12.5 NW 11 22 6 12 1008.4 - 0.0
22/10:00am 28.7 25.6 5.5 23 12.3 SW 11 17 6 9 1008.7 - 0.0
22/09:30am 29.1 26.1 7.6 26 11.8 NNW 13 24 7 13 1009.2 - 0.0
22/09:00am 27.2 24.1 5.5 25 11.4 N 11 19 6 10 1009.1 1008.1 0.2
22/08:30am 25.6 22.4 5.2 27 10.6 NE 11 19 6 10 1008.6 - 0.2
22/08:00am 23.5 20.9 6.3 33 9.0 E 9 15 5 8 1008.7 - 0.2
22/07:30am 21.3 18.7 6.0 37 7.8 E 9 11 5 6 1008.9 - 0.2
22/07:00am 19.7 17.3 7.1 44 6.5 E 9 11 5 6 1008.5 - 0.2
22/06:30am 19.1 16.8 5.6 41 6.8 E 7 9 4 5 1008.3 - 0.2
22/06:00am 17.5 15.5 6.4 48 5.6 E 6 11 3 6 1008.2 1007.2 0.2
22/05:30am 17.8 16.3 6.7 48 5.6 E 4 7 2 4 1008.2 - 0.2
22/05:00am 17.8 15.7 6.0 46 5.9 NNE 6 9 3 5 1008.1 - 0.2
22/04:30am 16.9 14.9 6.4 50 5.3 N 6 9 3 5 1008.4 - 0.2
22/04:00am 16.0 15.2 6.4 53 4.8 CALM 0 0 0 0 1008.4 - 0.2
22/03:30am 15.3 14.7 7.3 59 4.0 CALM 0 0 0 0 1008.5 - 0.2
22/03:00am 16.8 15.2 6.3 50 5.3 NNW 4 7 2 4 1008.7 1007.7 0.2
22/02:30am 17.7 16.0 5.9 46 5.9 N 4 7 2 4 1009.1 - 0.2
22/02:00am 19.5 17.4 5.6 40 7.0 ENE 6 11 3 6 1009.4 - 0.2
22/01:30am 19.1 16.4 5.6 41 6.8 NNE 9 17 5 9 1009.8 - 0.2
22/01:00am 19.7 16.7 4.2 36 7.6 E 9 15 5 8 1010.4 - 0.2
22/12:30am 19.6 16.1 3.7 35 7.7 E 11 17 6 9 1010.9 - 0.2
22/12:00am 18.6 15.9 5.5 42 6.5 E 9 13 5 7 1011.3 1010.3 0.2
 
Date/Time
CDT
Temp
°C
App
Temp
°C
Dew
Point
Rel
Hum
%
Delta-T
°C
Wind Press
QNH
hPa
Press
MSL
hPa
Rain
since 9 am
mm
Dir
 
Spd
km/h
Gust
km/h
Spd
kts
Gust
kts
21/11:30pm 15.2 15.0 8.9 66 3.3 CALM 0 0 0 0 1011.5 - 0.2
21/11:00pm 15.5 14.8 10.1 70 2.9 ESE 4 9 2 5 1011.5 - 0.2
21/10:30pm 15.9 15.5 9.8 67 3.2 E 2 7 1 4 1011.7 - 0.2
21/10:00pm 16.3 15.8 9.5 64 3.6 SSE 2 7 1 4 1011.9 - 0.2
21/09:30pm 17.2 16.8 8.4 56 4.6 CALM 0 0 0 0 1011.9 - 0.2
21/09:00pm 19.0 18.3 7.1 46 6.1 CALM 0 0 0 0 1011.9 1011.0 0.2
21/08:30pm 20.3 19.9 8.3 46 6.4 CALM 0 0 0 0 1011.8 - 0.2
21/08:00pm 22.1 21.5 7.5 39 7.7 CALM 0 0 0 0 1011.7 - 0.2
21/07:30pm 25.0 24.1 6.2 30 9.9 CALM 0 0 0 0 1011.6 - 0.2
21/07:00pm 26.7 25.5 4.5 24 11.4 CALM 0 0 0 0 1011.3 - 0.2
21/06:30pm 26.9 24.0 4.6 24 11.5 WSW 9 13 5 7 1011.1 - 0.2
21/06:00pm 27.3 25.0 5.0 24 11.6 W 6 11 3 6 1011.2 1010.2 0.2
21/05:30pm 27.2 25.0 5.5 25 11.4 SW 6 13 3 7 1011.3 - 0.2
21/05:00pm 27.2 25.4 5.5 25 11.4 NNW 4 17 2 9 1011.3 - 0.2
21/04:30pm 26.2 23.6 4.1 24 11.3 W 7 17 4 9 1011.5 - 0.2
21/04:00pm 25.9 23.0 4.9 26 10.8 WSW 9 17 5 9 1011.7 - 0.2
21/03:30pm 26.2 22.9 4.6 25 11.1 W 11 19 6 10 1012.0 - 0.2
21/03:00pm 24.9 21.4 3.5 25 10.7 NNW 11 17 6 9 1012.3 1011.4 0.2
21/02:30pm 24.6 21.9 5.4 29 9.9 SW 9 20 5 11 1012.7 - 0.2
21/02:00pm 23.9 20.9 6.2 32 9.2 SSW 11 19 6 10 1012.9 - 0.2
21/01:30pm 23.2 20.9 7.3 36 8.4 W 9 15 5 8 1013.3 - 0.2
21/01:00pm 21.8 18.7 7.2 39 7.7 W 13 20 7 11 1013.6 - 0.2

Other Formats:

Comma delimited format used in spreadsheet applications
http://www.bom.gov.au/fwo/IDS60801/IDS60801.95667.axf

JavaScript Object Notation format (JSON) in row-major order
http://www.bom.gov.au/fwo/IDS60801/IDS60801.95667.json